sensor_id;sensor_type;location;lat;lon;timestamp;P1;durP1;ratioP1;P2;durP2;ratioP2
70757;SDS011;59316;52.964;7.102;2023-12-20T00:02:42;8.85;;;2.05;;
70757;SDS011;59316;52.964;7.102;2023-12-20T00:08:04;12.25;;;2.00;;
70757;SDS011;59316;52.964;7.102;2023-12-20T00:13:26;11.35;;;1.70;;
70757;SDS011;59316;52.964;7.102;2023-12-20T00:18:47;11.25;;;1.70;;
70757;SDS011;59316;52.964;7.102;2023-12-20T00:24:09;15.43;;;1.83;;
70757;SDS011;59316;52.964;7.102;2023-12-20T00:29:30;13.85;;;1.75;;
70757;SDS011;59316;52.964;7.102;2023-12-20T00:34:51;5.57;;;1.70;;
70757;SDS011;59316;52.964;7.102;2023-12-20T00:40:12;11.35;;;2.25;;
70757;SDS011;59316;52.964;7.102;2023-12-20T00:45:34;7.45;;;1.40;;
70757;SDS011;59316;52.964;7.102;2023-12-20T00:50:56;6.68;;;1.63;;
70757;SDS011;59316;52.964;7.102;2023-12-20T00:56:17;11.07;;;1.73;;
70757;SDS011;59316;52.964;7.102;2023-12-20T01:01:38;9.05;;;1.95;;
70757;SDS011;59316;52.964;7.102;2023-12-20T01:07:00;15.15;;;1.98;;
70757;SDS011;59316;52.964;7.102;2023-12-20T01:12:22;19.33;;;2.28;;
70757;SDS011;59316;52.964;7.102;2023-12-20T01:17:43;11.75;;;1.70;;
70757;SDS011;59316;52.964;7.102;2023-12-20T01:23:05;17.52;;;1.67;;
70757;SDS011;59316;52.964;7.102;2023-12-20T01:28:26;12.60;;;2.28;;
70757;SDS011;59316;52.964;7.102;2023-12-20T01:33:47;16.75;;;2.60;;
70757;SDS011;59316;52.964;7.102;2023-12-20T01:39:09;14.18;;;1.80;;
70757;SDS011;59316;52.964;7.102;2023-12-20T01:44:44;13.38;;;1.92;;
70757;SDS011;59316;52.964;7.102;2023-12-20T01:50:06;13.25;;;1.80;;
70757;SDS011;59316;52.964;7.102;2023-12-20T01:55:29;16.48;;;2.22;;
70757;SDS011;59316;52.964;7.102;2023-12-20T02:00:54;16.35;;;2.55;;
70757;SDS011;59316;52.964;7.102;2023-12-20T02:06:18;9.73;;;1.92;;
70757;SDS011;59316;52.964;7.102;2023-12-20T02:11:39;18.65;;;2.45;;
70757;SDS011;59316;52.964;7.102;2023-12-20T02:17:01;23.90;;;2.63;;
70757;SDS011;59316;52.964;7.102;2023-12-20T02:22:22;23.23;;;2.55;;
70757;SDS011;59316;52.964;7.102;2023-12-20T02:27:44;8.85;;;1.75;;
70757;SDS011;59316;52.964;7.102;2023-12-20T02:33:07;22.10;;;2.53;;
70757;SDS011;59316;52.964;7.102;2023-12-20T02:38:31;15.77;;;2.50;;
70757;SDS011;59316;52.964;7.102;2023-12-20T02:43:52;17.45;;;2.60;;
70757;SDS011;59316;52.964;7.102;2023-12-20T02:49:14;13.93;;;2.30;;
70757;SDS011;59316;52.964;7.102;2023-12-20T02:54:35;20.10;;;2.45;;
70757;SDS011;59316;52.964;7.102;2023-12-20T02:59:57;15.50;;;2.17;;
70757;SDS011;59316;52.964;7.102;2023-12-20T03:05:18;14.98;;;2.40;;
70757;SDS011;59316;52.964;7.102;2023-12-20T03:10:40;14.60;;;2.97;;
70757;SDS011;59316;52.964;7.102;2023-12-20T03:16:07;16.25;;;2.58;;
70757;SDS011;59316;52.964;7.102;2023-12-20T03:21:30;10.48;;;1.83;;
70757;SDS011;59316;52.964;7.102;2023-12-20T03:26:51;15.35;;;2.03;;
70757;SDS011;59316;52.964;7.102;2023-12-20T03:32:12;10.55;;;2.42;;
70757;SDS011;59316;52.964;7.102;2023-12-20T03:37:34;16.35;;;2.53;;
70757;SDS011;59316;52.964;7.102;2023-12-20T03:42:55;16.35;;;2.53;;
70757;SDS011;59316;52.964;7.102;2023-12-20T03:48:17;9.25;;;2.10;;
70757;SDS011;59316;52.964;7.102;2023-12-20T03:53:38;12.70;;;2.83;;
70757;SDS011;59316;52.964;7.102;2023-12-20T03:59:00;26.92;;;2.85;;
70757;SDS011;59316;52.964;7.102;2023-12-20T04:04:21;16.27;;;2.80;;
70757;SDS011;59316;52.964;7.102;2023-12-20T04:09:43;25.73;;;3.03;;
70757;SDS011;59316;52.964;7.102;2023-12-20T04:15:04;17.67;;;3.08;;
70757;SDS011;59316;52.964;7.102;2023-12-20T04:20:26;16.02;;;2.78;;
70757;SDS011;59316;52.964;7.102;2023-12-20T04:25:47;14.35;;;2.88;;
70757;SDS011;59316;52.964;7.102;2023-12-20T04:31:08;18.85;;;3.20;;
70757;SDS011;59316;52.964;7.102;2023-12-20T04:36:30;15.45;;;2.67;;
70757;SDS011;59316;52.964;7.102;2023-12-20T04:41:51;25.92;;;3.65;;
70757;SDS011;59316;52.964;7.102;2023-12-20T04:47:13;17.05;;;2.83;;
70757;SDS011;59316;52.964;7.102;2023-12-20T04:52:34;16.60;;;3.08;;
70757;SDS011;59316;52.964;7.102;2023-12-20T04:57:56;25.27;;;2.60;;
70757;SDS011;59316;52.964;7.102;2023-12-20T05:03:17;22.55;;;3.65;;
70757;SDS011;59316;52.964;7.102;2023-12-20T05:08:38;15.73;;;2.67;;
70757;SDS011;59316;52.964;7.102;2023-12-20T05:13:59;18.23;;;3.10;;
70757;SDS011;59316;52.964;7.102;2023-12-20T05:19:20;16.10;;;2.88;;
70757;SDS011;59316;52.964;7.102;2023-12-20T05:24:42;21.70;;;3.47;;
70757;SDS011;59316;52.964;7.102;2023-12-20T05:30:04;17.75;;;2.80;;
70757;SDS011;59316;52.964;7.102;2023-12-20T05:35:26;23.50;;;3.50;;
70757;SDS011;59316;52.964;7.102;2023-12-20T05:40:48;19.70;;;3.40;;
70757;SDS011;59316;52.964;7.102;2023-12-20T05:46:10;18.05;;;3.22;;
70757;SDS011;59316;52.964;7.102;2023-12-20T05:51:31;19.17;;;3.00;;
70757;SDS011;59316;52.964;7.102;2023-12-20T05:56:53;25.30;;;2.92;;
70757;SDS011;59316;52.964;7.102;2023-12-20T06:02:14;17.08;;;2.80;;
70757;SDS011;59316;52.964;7.102;2023-12-20T06:07:35;15.85;;;2.90;;
70757;SDS011;59316;52.964;7.102;2023-12-20T06:12:57;19.92;;;3.33;;
70757;SDS011;59316;52.964;7.102;2023-12-20T06:18:19;20.15;;;3.20;;
70757;SDS011;59316;52.964;7.102;2023-12-20T06:23:40;18.73;;;3.30;;
70757;SDS011;59316;52.964;7.102;2023-12-20T06:29:02;16.33;;;2.88;;
70757;SDS011;59316;52.964;7.102;2023-12-20T06:34:23;16.73;;;2.53;;
70757;SDS011;59316;52.964;7.102;2023-12-20T06:39:45;21.05;;;3.33;;
70757;SDS011;59316;52.964;7.102;2023-12-20T06:45:06;20.58;;;2.97;;
70757;SDS011;59316;52.964;7.102;2023-12-20T06:50:28;23.50;;;3.15;;
70757;SDS011;59316;52.964;7.102;2023-12-20T06:55:50;19.27;;;3.72;;
70757;SDS011;59316;52.964;7.102;2023-12-20T07:01:11;31.95;;;3.20;;
70757;SDS011;59316;52.964;7.102;2023-12-20T07:06:34;20.85;;;3.83;;
70757;SDS011;59316;52.964;7.102;2023-12-20T07:11:55;21.88;;;3.00;;
70757;SDS011;59316;52.964;7.102;2023-12-20T07:17:17;17.67;;;3.13;;
70757;SDS011;59316;52.964;7.102;2023-12-20T07:22:39;10.35;;;3.00;;
70757;SDS011;59316;52.964;7.102;2023-12-20T07:28:02;18.50;;;3.15;;
70757;SDS011;59316;52.964;7.102;2023-12-20T07:33:24;22.52;;;3.42;;
70757;SDS011;59316;52.964;7.102;2023-12-20T07:38:46;21.40;;;3.67;;
70757;SDS011;59316;52.964;7.102;2023-12-20T07:44:08;25.73;;;3.22;;
70757;SDS011;59316;52.964;7.102;2023-12-20T07:49:32;20.95;;;3.45;;
70757;SDS011;59316;52.964;7.102;2023-12-20T07:54:54;17.17;;;3.13;;
70757;SDS011;59316;52.964;7.102;2023-12-20T08:00:16;27.85;;;3.78;;
70757;SDS011;59316;52.964;7.102;2023-12-20T08:05:39;25.55;;;3.80;;
70757;SDS011;59316;52.964;7.102;2023-12-20T08:11:00;27.25;;;3.58;;
70757;SDS011;59316;52.964;7.102;2023-12-20T08:16:22;23.23;;;3.30;;
70757;SDS011;59316;52.964;7.102;2023-12-20T08:21:44;19.02;;;3.00;;
70757;SDS011;59316;52.964;7.102;2023-12-20T08:27:06;21.65;;;3.28;;
70757;SDS011;59316;52.964;7.102;2023-12-20T08:32:27;19.98;;;3.72;;
70757;SDS011;59316;52.964;7.102;2023-12-20T08:37:49;17.70;;;3.05;;
70757;SDS011;59316;52.964;7.102;2023-12-20T08:43:11;22.02;;;3.88;;
70757;SDS011;59316;52.964;7.102;2023-12-20T08:48:32;21.48;;;2.85;;
70757;SDS011;59316;52.964;7.102;2023-12-20T08:53:54;20.27;;;2.92;;
70757;SDS011;59316;52.964;7.102;2023-12-20T08:59:15;16.00;;;3.00;;
70757;SDS011;59316;52.964;7.102;2023-12-20T09:04:37;19.02;;;2.75;;
70757;SDS011;59316;52.964;7.102;2023-12-20T09:09:58;14.88;;;2.10;;
70757;SDS011;59316;52.964;7.102;2023-12-20T09:15:20;14.50;;;1.70;;
70757;SDS011;59316;52.964;7.102;2023-12-20T09:20:41;11.20;;;1.90;;
70757;SDS011;59316;52.964;7.102;2023-12-20T09:26:04;13.25;;;2.33;;
70757;SDS011;59316;52.964;7.102;2023-12-20T09:31:26;13.43;;;3.10;;
70757;SDS011;59316;52.964;7.102;2023-12-20T09:36:47;3.70;;;0.80;;
70757;SDS011;59316;52.964;7.102;2023-12-20T09:42:10;1.55;;;0.98;;
70757;SDS011;59316;52.964;7.102;2023-12-20T09:47:32;2.97;;;0.67;;
70757;SDS011;59316;52.964;7.102;2023-12-20T09:52:54;3.15;;;1.00;;
70757;SDS011;59316;52.964;7.102;2023-12-20T09:58:18;8.73;;;1.02;;
70757;SDS011;59316;52.964;7.102;2023-12-20T10:03:40;7.28;;;1.17;;
70757;SDS011;59316;52.964;7.102;2023-12-20T10:09:02;4.28;;;0.93;;
70757;SDS011;59316;52.964;7.102;2023-12-20T10:14:23;5.53;;;0.88;;
70757;SDS011;59316;52.964;7.102;2023-12-20T10:19:45;3.67;;;0.75;;
70757;SDS011;59316;52.964;7.102;2023-12-20T10:25:07;3.10;;;0.52;;
70757;SDS011;59316;52.964;7.102;2023-12-20T10:30:29;4.15;;;0.57;;
70757;SDS011;59316;52.964;7.102;2023-12-20T10:35:50;6.97;;;1.20;;
70757;SDS011;59316;52.964;7.102;2023-12-20T10:41:12;5.53;;;0.93;;
70757;SDS011;59316;52.964;7.102;2023-12-20T10:46:35;7.00;;;0.80;;
70757;SDS011;59316;52.964;7.102;2023-12-20T10:52:00;5.90;;;1.08;;
70757;SDS011;59316;52.964;7.102;2023-12-20T10:57:24;7.50;;;0.85;;
70757;SDS011;59316;52.964;7.102;2023-12-20T11:02:49;9.67;;;1.23;;
70757;SDS011;59316;52.964;7.102;2023-12-20T11:08:18;8.18;;;1.15;;
70757;SDS011;59316;52.964;7.102;2023-12-20T11:14:03;10.40;;;1.45;;
70757;SDS011;59316;52.964;7.102;2023-12-20T11:19:35;9.15;;;1.00;;
70757;SDS011;59316;52.964;7.102;2023-12-20T11:25:05;5.90;;;1.27;;
70757;SDS011;59316;52.964;7.102;2023-12-20T11:30:39;6.30;;;1.10;;
70757;SDS011;59316;52.964;7.102;2023-12-20T11:36:03;6.43;;;1.25;;
70757;SDS011;59316;52.964;7.102;2023-12-20T11:41:34;4.85;;;1.00;;
70757;SDS011;59316;52.964;7.102;2023-12-20T11:46:55;7.25;;;1.23;;
70757;SDS011;59316;52.964;7.102;2023-12-20T11:52:16;9.05;;;1.20;;
70757;SDS011;59316;52.964;7.102;2023-12-20T11:57:38;8.48;;;1.42;;
70757;SDS011;59316;52.964;7.102;2023-12-20T12:03:00;6.90;;;1.23;;
70757;SDS011;59316;52.964;7.102;2023-12-20T12:08:21;9.55;;;1.13;;
70757;SDS011;59316;52.964;7.102;2023-12-20T12:13:42;6.13;;;1.33;;
70757;SDS011;59316;52.964;7.102;2023-12-20T12:19:04;9.05;;;1.20;;
70757;SDS011;59316;52.964;7.102;2023-12-20T12:24:25;8.05;;;1.23;;
70757;SDS011;59316;52.964;7.102;2023-12-20T12:29:59;10.00;;;1.70;;
70757;SDS011;59316;52.964;7.102;2023-12-20T12:35:23;10.18;;;2.10;;
70757;SDS011;59316;52.964;7.102;2023-12-20T12:40:45;6.95;;;1.10;;
70757;SDS011;59316;52.964;7.102;2023-12-20T12:46:07;7.35;;;1.40;;
70757;SDS011;59316;52.964;7.102;2023-12-20T12:51:29;7.68;;;1.15;;
70757;SDS011;59316;52.964;7.102;2023-12-20T12:56:50;6.75;;;1.42;;
70757;SDS011;59316;52.964;7.102;2023-12-20T13:02:14;6.88;;;1.45;;
70757;SDS011;59316;52.964;7.102;2023-12-20T13:07:36;9.35;;;1.30;;
70757;SDS011;59316;52.964;7.102;2023-12-20T13:12:57;13.52;;;1.80;;
70757;SDS011;59316;52.964;7.102;2023-12-20T13:18:19;6.97;;;1.42;;
70757;SDS011;59316;52.964;7.102;2023-12-20T13:23:41;3.78;;;0.95;;
70757;SDS011;59316;52.964;7.102;2023-12-20T13:29:03;9.52;;;1.52;;
70757;SDS011;59316;52.964;7.102;2023-12-20T13:34:24;7.03;;;1.20;;
70757;SDS011;59316;52.964;7.102;2023-12-20T13:39:46;10.45;;;1.67;;
70757;SDS011;59316;52.964;7.102;2023-12-20T13:45:07;4.50;;;1.20;;
70757;SDS011;59316;52.964;7.102;2023-12-20T13:50:29;11.07;;;2.17;;
70757;SDS011;59316;52.964;7.102;2023-12-20T13:55:51;6.28;;;1.20;;
70757;SDS011;59316;52.964;7.102;2023-12-20T14:01:12;7.88;;;1.42;;
70757;SDS011;59316;52.964;7.102;2023-12-20T14:06:34;7.35;;;1.38;;
70757;SDS011;59316;52.964;7.102;2023-12-20T14:11:56;6.13;;;1.10;;
70757;SDS011;59316;52.964;7.102;2023-12-20T14:17:17;9.95;;;1.05;;
70757;SDS011;59316;52.964;7.102;2023-12-20T14:22:39;10.60;;;1.50;;
70757;SDS011;59316;52.964;7.102;2023-12-20T14:28:00;3.28;;;0.80;;
70757;SDS011;59316;52.964;7.102;2023-12-20T14:33:22;5.50;;;1.60;;
70757;SDS011;59316;52.964;7.102;2023-12-20T14:38:43;10.35;;;1.70;;
70757;SDS011;59316;52.964;7.102;2023-12-20T14:44:06;2.95;;;0.80;;
70757;SDS011;59316;52.964;7.102;2023-12-20T14:49:27;5.35;;;1.00;;
70757;SDS011;59316;52.964;7.102;2023-12-20T14:54:49;5.43;;;0.90;;
70757;SDS011;59316;52.964;7.102;2023-12-20T15:00:10;6.60;;;1.38;;
70757;SDS011;59316;52.964;7.102;2023-12-20T15:05:32;6.10;;;1.10;;
70757;SDS011;59316;52.964;7.102;2023-12-20T15:10:53;2.63;;;0.98;;
70757;SDS011;59316;52.964;7.102;2023-12-20T15:16:15;3.90;;;1.10;;
70757;SDS011;59316;52.964;7.102;2023-12-20T15:21:36;4.18;;;0.93;;
70757;SDS011;59316;52.964;7.102;2023-12-20T15:26:58;8.27;;;1.15;;
70757;SDS011;59316;52.964;7.102;2023-12-20T15:32:19;6.35;;;1.23;;
70757;SDS011;59316;52.964;7.102;2023-12-20T15:37:40;7.70;;;1.27;;
70757;SDS011;59316;52.964;7.102;2023-12-20T15:43:02;6.85;;;1.10;;
70757;SDS011;59316;52.964;7.102;2023-12-20T15:48:24;6.30;;;1.17;;
70757;SDS011;59316;52.964;7.102;2023-12-20T15:53:45;7.50;;;1.13;;
70757;SDS011;59316;52.964;7.102;2023-12-20T15:59:07;5.78;;;1.30;;
70757;SDS011;59316;52.964;7.102;2023-12-20T16:04:28;7.70;;;1.58;;
70757;SDS011;59316;52.964;7.102;2023-12-20T16:09:50;9.27;;;1.65;;
70757;SDS011;59316;52.964;7.102;2023-12-20T16:15:11;7.82;;;1.55;;
70757;SDS011;59316;52.964;7.102;2023-12-20T16:20:33;12.05;;;1.58;;
70757;SDS011;59316;52.964;7.102;2023-12-20T16:25:54;8.00;;;2.00;;
70757;SDS011;59316;52.964;7.102;2023-12-20T16:31:16;6.75;;;1.85;;
70757;SDS011;59316;52.964;7.102;2023-12-20T16:37:12;10.57;;;2.58;;
70757;SDS011;59316;52.964;7.102;2023-12-20T16:42:25;14.98;;;2.03;;
70757;SDS011;59316;52.964;7.102;2023-12-20T16:47:47;17.15;;;2.42;;
70757;SDS011;59316;52.964;7.102;2023-12-20T16:53:10;12.35;;;2.58;;
70757;SDS011;59316;52.964;7.102;2023-12-20T16:58:32;10.05;;;2.65;;
70757;SDS011;59316;52.964;7.102;2023-12-20T17:03:54;13.93;;;2.65;;
70757;SDS011;59316;52.964;7.102;2023-12-20T17:09:15;15.88;;;2.60;;
70757;SDS011;59316;52.964;7.102;2023-12-20T17:14:37;17.30;;;2.85;;
70757;SDS011;59316;52.964;7.102;2023-12-20T17:19:58;19.48;;;2.97;;
70757;SDS011;59316;52.964;7.102;2023-12-20T17:25:19;20.13;;;2.90;;
70757;SDS011;59316;52.964;7.102;2023-12-20T17:30:41;17.50;;;3.20;;
70757;SDS011;59316;52.964;7.102;2023-12-20T17:36:06;25.23;;;3.42;;
70757;SDS011;59316;52.964;7.102;2023-12-20T17:41:28;17.42;;;3.88;;
70757;SDS011;59316;52.964;7.102;2023-12-20T17:46:50;9.88;;;3.08;;
70757;SDS011;59316;52.964;7.102;2023-12-20T17:52:11;15.77;;;4.10;;
70757;SDS011;59316;52.964;7.102;2023-12-20T17:57:33;15.10;;;4.80;;
70757;SDS011;59316;52.964;7.102;2023-12-20T18:02:54;14.40;;;3.40;;
70757;SDS011;59316;52.964;7.102;2023-12-20T18:08:16;11.50;;;3.08;;
70757;SDS011;59316;52.964;7.102;2023-12-20T18:13:37;16.42;;;3.38;;
70757;SDS011;59316;52.964;7.102;2023-12-20T18:18:59;11.68;;;4.22;;
70757;SDS011;59316;52.964;7.102;2023-12-20T18:24:20;13.90;;;3.50;;
70757;SDS011;59316;52.964;7.102;2023-12-20T18:29:42;13.50;;;4.25;;
70757;SDS011;59316;52.964;7.102;2023-12-20T18:35:04;12.55;;;3.22;;
70757;SDS011;59316;52.964;7.102;2023-12-20T18:40:26;11.00;;;4.20;;
70757;SDS011;59316;52.964;7.102;2023-12-20T18:45:50;13.55;;;4.90;;
70757;SDS011;59316;52.964;7.102;2023-12-20T18:51:19;8.48;;;3.85;;
70757;SDS011;59316;52.964;7.102;2023-12-20T18:56:41;9.10;;;3.85;;
70757;SDS011;59316;52.964;7.102;2023-12-20T19:02:02;6.82;;;3.35;;
70757;SDS011;59316;52.964;7.102;2023-12-20T19:07:24;8.88;;;3.15;;
70757;SDS011;59316;52.964;7.102;2023-12-20T19:12:46;6.15;;;3.05;;
70757;SDS011;59316;52.964;7.102;2023-12-20T19:18:07;5.50;;;3.10;;
70757;SDS011;59316;52.964;7.102;2023-12-20T19:23:29;4.82;;;2.70;;
70757;SDS011;59316;52.964;7.102;2023-12-20T19:28:51;4.55;;;2.53;;
70757;SDS011;59316;52.964;7.102;2023-12-20T19:34:12;5.60;;;2.70;;
70757;SDS011;59316;52.964;7.102;2023-12-20T19:39:34;3.80;;;2.47;;
70757;SDS011;59316;52.964;7.102;2023-12-20T19:44:55;5.65;;;2.33;;
70757;SDS011;59316;52.964;7.102;2023-12-20T19:50:17;3.95;;;1.80;;
70757;SDS011;59316;52.964;7.102;2023-12-20T19:55:39;2.53;;;1.52;;
70757;SDS011;59316;52.964;7.102;2023-12-20T20:01:01;2.30;;;1.60;;
70757;SDS011;59316;52.964;7.102;2023-12-20T20:06:23;4.50;;;1.70;;
70757;SDS011;59316;52.964;7.102;2023-12-20T20:11:44;3.13;;;1.38;;
70757;SDS011;59316;52.964;7.102;2023-12-20T20:17:06;5.70;;;1.40;;
70757;SDS011;59316;52.964;7.102;2023-12-20T20:22:30;1.95;;;1.45;;
70757;SDS011;59316;52.964;7.102;2023-12-20T20:27:54;2.65;;;1.42;;
70757;SDS011;59316;52.964;7.102;2023-12-20T20:33:16;2.90;;;1.50;;
70757;SDS011;59316;52.964;7.102;2023-12-20T20:38:37;1.80;;;1.23;;
70757;SDS011;59316;52.964;7.102;2023-12-20T20:43:59;2.60;;;1.40;;
70757;SDS011;59316;52.964;7.102;2023-12-20T20:49:20;4.50;;;1.35;;
70757;SDS011;59316;52.964;7.102;2023-12-20T20:54:42;5.03;;;1.42;;
70757;SDS011;59316;52.964;7.102;2023-12-20T21:00:04;2.70;;;1.30;;
70757;SDS011;59316;52.964;7.102;2023-12-20T21:05:26;1.45;;;1.00;;
70757;SDS011;59316;52.964;7.102;2023-12-20T21:10:48;1.02;;;0.93;;
70757;SDS011;59316;52.964;7.102;2023-12-20T21:16:10;2.30;;;1.40;;
70757;SDS011;59316;52.964;7.102;2023-12-20T21:21:31;4.65;;;1.52;;
70757;SDS011;59316;52.964;7.102;2023-12-20T21:26:52;1.50;;;1.00;;
70757;SDS011;59316;52.964;7.102;2023-12-20T21:32:14;1.77;;;1.15;;
70757;SDS011;59316;52.964;7.102;2023-12-20T21:37:35;3.88;;;1.60;;
70757;SDS011;59316;52.964;7.102;2023-12-20T21:42:58;3.28;;;2.20;;
70757;SDS011;59316;52.964;7.102;2023-12-20T21:48:19;8.38;;;1.98;;
70757;SDS011;59316;52.964;7.102;2023-12-20T21:53:41;8.10;;;4.13;;
70757;SDS011;59316;52.964;7.102;2023-12-20T21:59:02;6.38;;;2.22;;
70757;SDS011;59316;52.964;7.102;2023-12-20T22:04:23;6.57;;;2.40;;
70757;SDS011;59316;52.964;7.102;2023-12-20T22:09:45;3.30;;;1.80;;
70757;SDS011;59316;52.964;7.102;2023-12-20T22:15:06;7.82;;;3.00;;
70757;SDS011;59316;52.964;7.102;2023-12-20T22:20:28;8.98;;;2.33;;
70757;SDS011;59316;52.964;7.102;2023-12-20T22:25:50;8.15;;;2.60;;
70757;SDS011;59316;52.964;7.102;2023-12-20T22:31:12;9.30;;;2.97;;
70757;SDS011;59316;52.964;7.102;2023-12-20T22:36:33;9.35;;;3.40;;
70757;SDS011;59316;52.964;7.102;2023-12-20T22:41:55;14.63;;;3.00;;
70757;SDS011;59316;52.964;7.102;2023-12-20T22:47:16;12.02;;;2.85;;
70757;SDS011;59316;52.964;7.102;2023-12-20T22:52:37;10.88;;;2.97;;
70757;SDS011;59316;52.964;7.102;2023-12-20T22:57:59;9.57;;;2.72;;
70757;SDS011;59316;52.964;7.102;2023-12-20T23:03:21;14.50;;;3.55;;
70757;SDS011;59316;52.964;7.102;2023-12-20T23:08:42;11.82;;;4.00;;
70757;SDS011;59316;52.964;7.102;2023-12-20T23:14:04;13.68;;;3.55;;
70757;SDS011;59316;52.964;7.102;2023-12-20T23:19:35;15.60;;;3.63;;
70757;SDS011;59316;52.964;7.102;2023-12-20T23:24:56;12.32;;;3.47;;
70757;SDS011;59316;52.964;7.102;2023-12-20T23:30:18;16.13;;;3.08;;
70757;SDS011;59316;52.964;7.102;2023-12-20T23:35:40;11.77;;;3.35;;
70757;SDS011;59316;52.964;7.102;2023-12-20T23:41:01;11.05;;;3.00;;
70757;SDS011;59316;52.964;7.102;2023-12-20T23:46:22;9.63;;;2.88;;
70757;SDS011;59316;52.964;7.102;2023-12-20T23:51:43;11.27;;;3.47;;
70757;SDS011;59316;52.964;7.102;2023-12-20T23:57:05;16.08;;;3.40;;
